Time;durP1;ratioP1;P1;durP2;ratioP2;P2;SDS_P1;SDS_P2;PMS_P1;PMS_P2;Temp;Humidity;BMP_temperature;BMP_pressure;BME280_temperature;BME280_humidity;BME280_pressure;Samples;Min_cycle;Max_cycle;Signal;HPM_P1;HPM_P2
2022/09/22 00:02:12;;;;;;;;;;;;;;;;;;20669999;28;19930;-64
2022/09/22 00:12:14;;;;;;;;;;;;;;;;;;20667843;28;19936;-65
2022/09/22 00:22:16;;;;;;;;;;;;;;;;;;20667472;28;19980;-63
2022/09/22 00:32:18;;;;;;;;;;;;;;;;;;20666729;28;19933;-63
2022/09/22 00:42:21;;;;;;;;;;;;;;;;;;20667042;28;19926;-62
2022/09/22 00:52:23;;;;;;;;;;;;;;;;;;20667210;28;19951;-60
2022/09/22 01:02:24;;;;;;;;;;;;;;;;;;20680438;28;20028;-66
2022/09/22 01:12:27;;;;;;;;;;;;;;;;;;20681915;28;20476;-69
2022/09/22 01:22:31;;;;;;;;;;;;;;;;;;20680902;28;19925;-64
2022/09/22 01:32:36;;;;;;;;;;;;;;;;;;20678527;28;19972;-60
2022/09/22 01:42:42;;;;;;;;;;;;;;;;;;20678686;28;19926;-59
2022/09/22 01:52:47;;;;;;;;;;;;;;;;;;20678447;28;19926;-60
2022/09/22 02:02:51;;;;;;;;;;;;;;;;;;20677387;28;19925;-59
2022/09/22 02:12:55;;;;;;;;;;;;;;;;;;20675555;28;20395;-61
2022/09/22 02:22:58;;;;;;;;;;;;;;;;;;20676516;28;20343;-61
2022/09/22 02:33:01;;;;;;;;;;;;;;;;;;20675182;28;19961;-60
2022/09/22 02:43:03;;;;;;;;;;;;;;;;;;20675680;28;19972;-60
2022/09/22 02:53:06;;;;;;;;;;;;;;;;;;20673419;28;20021;-61
2022/09/22 03:03:10;;;;;;;;;;;;;;;;;;20672405;28;19987;-62
2022/09/22 03:13:13;;;;;;;;;;;;;;;;;;20676953;28;19932;-60
2022/09/22 03:23:18;;;;;;;;;;;;;;;;;;20675006;28;20378;-62
2022/09/22 03:33:21;;;;;;;;;;;;;;;;;;20670179;28;19937;-59
2022/09/22 03:43:24;;;;;;;;;;;;;;;;;;20670090;28;20124;-59
2022/09/22 03:53:28;;;;;;;;;;;;;;;;;;20669211;28;19932;-60
2022/09/22 04:03:29;;;;;;;;;;;;;;;;;;20668597;28;19980;-60
2022/09/22 04:13:38;;;;;;;;;;;;;;;;;;20668406;28;19930;-61
2022/09/22 04:23:42;;;;;;;;;;;;;;;;;;20668786;28;19933;-61
2022/09/22 04:33:43;;;;;;;;;;;;;;;;;;20677553;28;19997;-61
2022/09/22 04:43:46;;;;;;;;;;;;;;;;;;20685876;28;20012;-61
2022/09/22 04:53:48;;;;;;;;;;;;;;;;;;20684013;28;19926;-61
2022/09/22 05:03:51;;;;;;;;;;;;;;;;;;20684151;28;20396;-61
2022/09/22 05:13:52;;;;;;;;;;;;;;;;;;20681983;28;19933;-63
2022/09/22 05:23:54;;;;;;;;;;;;;;;;;;20682056;28;19926;-61
2022/09/22 05:33:56;;;;;;;;;;;;;;;;;;20680404;28;19933;-62
2022/09/22 05:43:57;;;;;;;;;;;;;;;;;;20678766;28;20012;-60
2022/09/22 05:54:00;;;;;;;;;;;;;;;;;;20662443;28;19926;-61
2022/09/22 06:04:02;;;;;;;;;;;;;;;;;;20684766;28;19969;-65
2022/09/22 06:14:04;;;;;;;;;;;;;;;;;;20679781;28;19925;-64
2022/09/22 06:24:05;;;;;;;;;;;;;;;;;;20679749;28;19930;-63
2022/09/22 06:34:07;;;;;;;;;;;;;;;;;;20687563;28;20401;-63
2022/09/22 06:44:11;;;;;;;;;;;;;;;;;;20677559;28;20294;-60
2022/09/22 06:54:14;;;;;;;;;;;;;;;;;;20672067;28;20052;-61
2022/09/22 07:04:16;;;;;;;;;;;;;;;;;;20654737;28;19969;-62
2022/09/22 07:14:21;;;;;;;;;;;;;;;;;;20671696;28;20412;-62
2022/09/22 07:24:22;;;;;;;;;;;;;;;;;;20671900;28;19953;-60
2022/09/22 07:34:24;;;;;;;;;;;;;;;;;;20669914;28;19966;-62
2022/09/22 07:54:47;;;;;;;;;;;;;;;;;;20669598;28;20355;-60
2022/09/22 08:04:49;;;;;;;;;;;;;;;;;;20668536;28;19933;-61
2022/09/22 08:14:52;;;;;;;;;;;;;;;;;;20667388;28;19925;-61
2022/09/22 08:24:53;;;;;;;;;;;;;;;;;;20680860;28;19932;-58
2022/09/22 08:34:56;;;;;;;;;;;;;;;;;;20748191;28;19936;-58
2022/09/22 08:44:58;;;;;;;;;;;;;;;;;;20747495;28;20378;-60
2022/09/22 08:55:00;;;;;;;;;;;;;;;;;;20748843;28;20281;-59
2022/09/22 09:05:01;;;;;;;;;;;;;;;;;;20748347;28;19929;-59
2022/09/22 09:15:04;;;;;;;;;;;;;;;;;;20748360;28;19933;-60
2022/09/22 09:25:06;;;;;;;;;;;;;;;;;;20762524;28;20333;-60
2022/09/22 09:35:09;;;;;;;;;;;;;;;;;;20760150;28;20000;-62
2022/09/22 09:45:12;;;;;;;;;;;;;;;;;;20759748;28;19925;-61
2022/09/22 09:55:14;;;;;;;;;;;;;;;;;;20758974;28;19925;-60
2022/09/22 10:05:15;;;;;;;;;;;;;;;;;;20759018;28;20041;-59
2022/09/22 10:15:17;;;;;;;;;;;;;;;;;;20757385;28;19926;-60
2022/09/22 10:25:19;;;;;;;;;;;;;;;;;;20755921;28;20385;-61
2022/09/22 10:35:20;;;;;;;;;;;;;;;;;;20755705;28;20321;-62
2022/09/22 10:45:22;;;;;;;;;;;;;;;;;;20755194;28;19932;-61
2022/09/22 10:55:24;;;;;;;;;;;;;;;;;;20742863;28;19926;-63
2022/09/22 11:15:46;;;;;;;;;;;;;;;;;;20674493;28;19926;-62
2022/09/22 11:25:49;;;;;;;;;;;;;;;;;;20680222;28;19925;-65
2022/09/22 11:35:51;;;;;;;;;;;;;;;;;;20670035;28;19933;-62
2022/09/22 11:45:53;;;;;;;;;;;;;;;;;;20670370;28;20433;-65
2022/09/22 11:55:55;;;;;;;;;;;;;;;;;;20669133;28;19925;-60
2022/09/22 12:05:57;;;;;;;;;;;;;;;;;;20667717;28;19979;-64
2022/09/22 12:15:59;;;;;;;;;;;;;;;;;;20667224;28;20036;-60
2022/09/22 12:26:00;;;;;;;;;;;;;;;;;;20665513;28;19930;-61
2022/09/22 12:36:02;;;;;;;;;;;;;;;;;;20681659;28;19932;-60
2022/09/22 12:46:04;;;;;;;;;;;;;;;;;;20748202;28;19932;-58
2022/09/22 12:56:06;;;;;;;;;;;;;;;;;;20758562;28;19984;-60
2022/09/22 13:06:07;;;;;;;;;;;;;;;;;;20762704;28;19980;-61
2022/09/22 13:16:09;;;;;;;;;;;;;;;;;;20763556;28;19926;-61
2022/09/22 13:26:11;;;;;;;;;;;;;;;;;;20761411;28;19980;-61
2022/09/22 13:36:13;;;;;;;;;;;;;;;;;;20754741;28;19926;-60
2022/09/22 13:46:15;;;;;;;;;;;;;;;;;;20756562;28;20016;-60
2022/09/22 13:56:17;;;;;;;;;;;;;;;;;;20754918;28;19952;-59
2022/09/22 14:06:19;;;;;;;;;;;;;;;;;;20754479;28;19925;-61
2022/09/22 14:16:21;;;;;;;;;;;;;;;;;;20753312;28;19926;-61
2022/09/22 14:26:23;;;;;;;;;;;;;;;;;;20685395;28;1962574;-59
2022/09/22 14:36:25;;;;;;;;;;;;;;;;;;20756034;28;19926;-60
2022/09/22 14:46:27;;;;;;;;;;;;;;;;;;20755654;28;19956;-59
2022/09/22 14:56:31;;;;;;;;;;;;;;;;;;20755000;28;19925;-59
2022/09/22 15:06:33;;;;;;;;;;;;;;;;;;20752655;28;19929;-59
2022/09/22 15:16:34;;;;;;;;;;;;;;;;;;20751220;28;19936;-60
2022/09/22 15:26:37;;;;;;;;;;;;;;;;;;20753048;28;19934;-61
2022/09/22 15:36:39;;;;;;;;;;;;;;;;;;20747853;28;20343;-62
2022/09/22 15:46:42;;;;;;;;;;;;;;;;;;20752621;28;20377;-63
2022/09/22 15:56:43;;;;;;;;;;;;;;;;;;20736090;28;19926;-60
2022/09/22 16:06:46;;;;;;;;;;;;;;;;;;20751065;28;19979;-62
2022/09/22 16:16:48;;;;;;;;;;;;;;;;;;20731973;28;19926;-61
2022/09/22 16:26:53;;;;;;;;;;;;;;;;;;20749136;28;19932;-60
2022/09/22 16:36:54;;;;;;;;;;;;;;;;;;20748939;28;19933;-61
2022/09/22 16:46:57;;;;;;;;;;;;;;;;;;20748383;28;20014;-60
2022/09/22 16:56:59;;;;;;;;;;;;;;;;;;20747600;28;19926;-63
2022/09/22 17:07:01;;;;;;;;;;;;;;;;;;20746871;28;19987;-62
2022/09/22 17:17:06;;;;;;;;;;;;;;;;;;20747783;28;20388;-62
2022/09/22 17:27:08;;;;;;;;;;;;;;;;;;20746737;28;19925;-63
2022/09/22 17:37:12;;;;;;;;;;;;;;;;;;20749770;28;19995;-60
2022/09/22 17:57:35;;;;;;;;;;;;;;;;;;20759858;28;19926;-62
2022/09/22 18:07:38;;;;;;;;;;;;;;;;;;20758969;28;20262;-62
2022/09/22 18:17:40;;;;;;;;;;;;;;;;;;20757802;28;20404;-61
2022/09/22 18:27:43;;;;;;;;;;;;;;;;;;20756577;28;19925;-66
2022/09/22 18:37:45;;;;;;;;;;;;;;;;;;20755539;28;20012;-70
2022/09/22 18:47:46;;;;;;;;;;;;;;;;;;20756304;28;19930;-62
2022/09/22 18:57:49;;;;;;;;;;;;;;;;;;20756514;28;20298;-61
2022/09/22 19:07:52;;;;;;;;;;;;;;;;;;20756064;28;19932;-62
2022/09/22 19:17:53;;;;;;;;;;;;;;;;;;20753680;28;19932;-62
2022/09/22 19:27:55;;;;;;;;;;;;;;;;;;20753234;28;19933;-62
2022/09/22 19:37:57;;;;;;;;;;;;;;;;;;20751557;28;19932;-61
2022/09/22 19:48:00;;;;;;;;;;;;;;;;;;20752272;28;19932;-61
2022/09/22 19:58:02;;;;;;;;;;;;;;;;;;20733251;28;19925;-63
2022/09/22 20:08:04;;;;;;;;;;;;;;;;;;20750619;28;19925;-62
2022/09/22 20:18:06;;;;;;;;;;;;;;;;;;20749297;28;20116;-62
2022/09/22 20:28:08;;;;;;;;;;;;;;;;;;20750075;28;19926;-62
2022/09/22 20:38:10;;;;;;;;;;;;;;;;;;20749337;28;19932;-60
2022/09/22 20:48:12;;;;;;;;;;;;;;;;;;20748077;28;19925;-62
2022/09/22 20:58:14;;;;;;;;;;;;;;;;;;20749004;28;19932;-62
2022/09/22 21:18:37;;;;;;;;;;;;;;;;;;20761592;28;19929;-62
2022/09/22 21:28:39;;;;;;;;;;;;;;;;;;20763356;28;20381;-62
2022/09/22 21:38:40;;;;;;;;;;;;;;;;;;20761744;28;19948;-61
2022/09/22 21:48:42;;;;;;;;;;;;;;;;;;20760529;28;19979;-62
2022/09/22 21:58:44;;;;;;;;;;;;;;;;;;20760452;28;19925;-62
2022/09/22 22:08:46;;;;;;;;;;;;;;;;;;20760120;28;19929;-61
2022/09/22 22:18:48;;;;;;;;;;;;;;;;;;20762916;28;19933;-65
2022/09/22 22:28:50;;;;;;;;;;;;;;;;;;20760121;28;19972;-62
2022/09/22 22:38:51;;;;;;;;;;;;;;;;;;20756823;28;20460;-62
2022/09/22 22:48:53;;;;;;;;;;;;;;;;;;20756240;28;20437;-64
2022/09/22 22:58:55;;;;;;;;;;;;;;;;;;20755119;28;20270;-62
2022/09/22 23:08:56;;;;;;;;;;;;;;;;;;20755320;28;20397;-61
2022/09/22 23:18:58;;;;;;;;;;;;;;;;;;20753910;28;19925;-62
2022/09/22 23:29:02;;;;;;;;;;;;;;;;;;20752682;28;19956;-63
2022/09/22 23:39:04;;;;;;;;;;;;;;;;;;20753056;28;20012;-63
2022/09/22 23:49:06;;;;;;;;;;;;;;;;;;20753374;28;19925;-62
2022/09/22 23:59:07;;;;;;;;;;;;;;;;;;20751372;28;19967;-62
